Time;durP1;ratioP1;P1;durP2;ratioP2;P2;SDS_P1;SDS_P2;PMS_P1;PMS_P2;Temp;Humidity;BMP_temperature;BMP_pressure;BME280_temperature;BME280_humidity;BME280_pressure;Samples;Min_cycle;Max_cycle;Signal;HPM_P1;HPM_P2
2020/12/14 00:00:13;;;;;;;15.05;6.20;;;;;;;;;;2064308;28;20034;-77
2020/12/14 00:01:33;;;;;;;6.20;4.95;;;;;;;;;;2058221;28;20102;-78
2020/12/14 00:02:52;;;;;;;9.50;6.10;;;;;;;;;;2058649;28;20483;-78
2020/12/14 00:04:11;;;;;;;7.63;5.82;;;;;;;;;;2065468;28;20058;-77
2020/12/14 00:05:30;;;;;;;7.50;5.45;;;;;;;;;;2062486;28;20138;-78
2020/12/14 00:06:50;;;;;;;7.18;5.88;;;;;;;;;;2065553;28;20051;-79
2020/12/14 00:08:09;;;;;;;9.00;6.07;;;;;;;;;;2059956;28;20019;-78
2020/12/14 00:09:28;;;;;;;6.40;5.38;;;;;;;;;;2065547;28;20022;-75
2020/12/14 00:10:47;;;;;;;6.32;5.22;;;;;;;;;;2061521;28;20382;-78
2020/12/14 00:12:06;;;;;;;6.20;5.53;;;;;;;;;;2061269;28;20466;-78
2020/12/14 00:13:24;;;;;;;8.02;6.00;;;;;;;;;;2062611;28;20031;-79
2020/12/14 00:14:43;;;;;;;8.80;5.70;;;;;;;;;;2065495;28;20034;-78
2020/12/14 00:16:06;;;;;;;8.65;5.85;;;;;;;;;;2067889;28;20386;-78
2020/12/14 00:17:25;;;;;;;7.32;5.35;;;;;;;;;;2064992;28;20030;-79
2020/12/14 00:18:44;;;;;;;5.93;5.32;;;;;;;;;;2065740;28;20026;-78
2020/12/14 00:20:03;;;;;;;6.57;5.00;;;;;;;;;;2062461;28;20050;-78
2020/12/14 00:21:22;;;;;;;10.88;5.40;;;;;;;;;;2065161;28;20038;-78
2020/12/14 00:22:41;;;;;;;5.97;5.22;;;;;;;;;;2065334;28;20034;-79
2020/12/14 00:24:00;;;;;;;6.47;5.20;;;;;;;;;;2064000;28;20509;-78
2020/12/14 00:25:19;;;;;;;6.68;5.10;;;;;;;;;;2065176;28;20066;-79
2020/12/14 00:26:38;;;;;;;8.23;5.68;;;;;;;;;;2065216;28;20034;-75
2020/12/14 00:27:57;;;;;;;5.75;5.07;;;;;;;;;;2065228;28;20458;-78
2020/12/14 00:29:16;;;;;;;5.97;4.82;;;;;;;;;;2057103;28;20507;-77
2020/12/14 00:30:35;;;;;;;5.82;5.20;;;;;;;;;;2058256;28;20034;-78
2020/12/14 00:31:54;;;;;;;6.78;5.05;;;;;;;;;;2061134;28;20026;-78
2020/12/14 00:33:13;;;;;;;6.57;4.53;;;;;;;;;;2064372;28;20034;-79
2020/12/14 00:34:32;;;;;;;7.57;4.93;;;;;;;;;;2063886;28;20510;-78
2020/12/14 00:35:51;;;;;;;9.77;6.30;;;;;;;;;;2063982;28;20039;-77
2020/12/14 00:37:10;;;;;;;7.47;4.65;;;;;;;;;;2056581;28;20031;-79
2020/12/14 00:38:29;;;;;;;5.93;4.75;;;;;;;;;;2063540;28;20027;-79
2020/12/14 00:39:48;;;;;;;4.82;4.32;;;;;;;;;;2062510;28;20023;-78
2020/12/14 00:41:09;;;;;;;7.68;5.00;;;;;;;;;;2062785;28;20034;-79
2020/12/14 00:42:28;;;;;;;4.38;3.85;;;;;;;;;;2061016;28;20520;-79
2020/12/14 00:43:47;;;;;;;4.57;4.18;;;;;;;;;;2062603;28;20042;-79
2020/12/14 00:45:06;;;;;;;5.38;4.53;;;;;;;;;;2059181;28;20055;-79
2020/12/14 00:46:25;;;;;;;5.05;4.20;;;;;;;;;;2063657;28;20026;-78
2020/12/14 00:47:44;;;;;;;4.75;4.13;;;;;;;;;;2061203;28;20023;-79
2020/12/14 00:49:04;;;;;;;4.53;4.13;;;;;;;;;;2061023;28;20386;-78
2020/12/14 00:50:22;;;;;;;4.25;3.85;;;;;;;;;;2065272;28;20479;-79
2020/12/14 00:51:41;;;;;;;4.72;3.92;;;;;;;;;;2063601;28;20034;-79
2020/12/14 00:53:00;;;;;;;5.88;4.07;;;;;;;;;;2062488;28;20117;-73
2020/12/14 00:54:19;;;;;;;4.65;4.20;;;;;;;;;;2061813;28;20414;-79
2020/12/14 00:55:38;;;;;;;4.82;4.00;;;;;;;;;;2057095;28;20038;-77
2020/12/14 00:56:57;;;;;;;5.28;4.10;;;;;;;;;;2061643;28;20019;-79
2020/12/14 00:58:16;;;;;;;4.25;3.85;;;;;;;;;;2064620;28;20030;-79
2020/12/14 00:59:34;;;;;;;4.65;3.95;;;;;;;;;;2057504;28;20023;-79
2020/12/14 01:00:54;;;;;;;6.70;4.15;;;;;;;;;;2061967;28;20027;-79
2020/12/14 01:02:13;;;;;;;4.30;3.90;;;;;;;;;;2064254;28;20027;-79
2020/12/14 01:03:32;;;;;;;4.53;3.88;;;;;;;;;;2061459;28;20562;-80
2020/12/14 01:04:51;;;;;;;4.80;4.25;;;;;;;;;;2057930;28;20109;-80
2020/12/14 01:06:10;;;;;;;4.78;4.03;;;;;;;;;;2065263;28;20490;-79
2020/12/14 01:07:28;;;;;;;4.68;4.28;;;;;;;;;;2057391;28;20471;-74
2020/12/14 01:08:47;;;;;;;5.47;3.88;;;;;;;;;;2060817;28;20114;-80
2020/12/14 01:10:06;;;;;;;4.35;3.97;;;;;;;;;;2064954;28;20498;-80
2020/12/14 01:11:28;;;;;;;5.18;3.80;;;;;;;;;;2064174;28;20089;-78
2020/12/14 01:12:47;;;;;;;3.88;3.55;;;;;;;;;;2064219;28;20046;-80
2020/12/14 01:14:06;;;;;;;5.00;3.60;;;;;;;;;;2060675;28;20073;-73
2020/12/14 01:15:25;;;;;;;5.88;4.20;;;;;;;;;;2056955;28;20027;-80
2020/12/14 01:16:46;;;;;;;5.40;4.30;;;;;;;;;;2057919;28;20026;-79
2020/12/14 01:18:05;;;;;;;5.65;4.38;;;;;;;;;;2057182;28;20027;-74
2020/12/14 01:19:23;;;;;;;5.05;3.95;;;;;;;;;;2065242;28;20391;-80
2020/12/14 01:20:43;;;;;;;5.70;4.07;;;;;;;;;;2063092;28;20483;-80
2020/12/14 01:22:01;;;;;;;5.22;4.68;;;;;;;;;;2063934;28;20498;-80
2020/12/14 01:23:20;;;;;;;7.10;5.05;;;;;;;;;;2064333;28;20038;-79
2020/12/14 01:24:39;;;;;;;4.85;4.38;;;;;;;;;;2065190;28;20058;-79
2020/12/14 01:25:58;;;;;;;5.18;4.05;;;;;;;;;;2064225;28;20042;-80
2020/12/14 01:27:17;;;;;;;7.28;4.15;;;;;;;;;;2064689;28;20022;-80
2020/12/14 01:28:36;;;;;;;6.25;4.47;;;;;;;;;;2060696;28;20154;-79
2020/12/14 01:29:55;;;;;;;4.78;4.10;;;;;;;;;;2064778;28;20416;-80
2020/12/14 01:31:14;;;;;;;5.32;4.60;;;;;;;;;;2065493;28;20062;-80
2020/12/14 01:32:32;;;;;;;5.28;4.32;;;;;;;;;;2064774;28;20479;-79
2020/12/14 01:33:51;;;;;;;4.32;3.92;;;;;;;;;;2063600;28;20390;-80
2020/12/14 01:35:11;;;;;;;4.88;4.38;;;;;;;;;;2059002;28;20390;-79
2020/12/14 01:36:30;;;;;;;6.03;4.60;;;;;;;;;;2059175;28;20043;-79
2020/12/14 01:37:50;;;;;;;6.13;4.30;;;;;;;;;;2059912;28;20062;-79
2020/12/14 01:39:09;;;;;;;4.90;4.40;;;;;;;;;;2060396;28;20030;-80
2020/12/14 01:40:28;;;;;;;4.68;4.05;;;;;;;;;;2063707;28;20490;-79
2020/12/14 01:41:47;;;;;;;5.28;4.30;;;;;;;;;;2064949;28;20038;-80
2020/12/14 01:43:06;;;;;;;4.72;4.20;;;;;;;;;;2065822;28;20074;-79
2020/12/14 01:44:25;;;;;;;4.38;3.97;;;;;;;;;;2065311;28;20027;-80
2020/12/14 01:45:44;;;;;;;4.72;4.30;;;;;;;;;;2065730;28;20026;-80
2020/12/14 01:47:03;;;;;;;5.05;4.50;;;;;;;;;;2063044;28;20109;-80
2020/12/14 01:48:23;;;;;;;4.40;4.00;;;;;;;;;;2065415;28;20018;-79
2020/12/14 01:49:42;;;;;;;6.07;4.78;;;;;;;;;;2065192;28;20105;-79
2020/12/14 01:51:01;;;;;;;7.63;4.65;;;;;;;;;;2063949;28;20022;-79
2020/12/14 01:52:19;;;;;;;5.25;4.30;;;;;;;;;;2064435;28;20467;-80
2020/12/14 01:53:41;;;;;;;4.63;4.10;;;;;;;;;;2065141;28;20414;-79
2020/12/14 01:55:00;;;;;;;5.47;4.45;;;;;;;;;;2060118;28;20022;-80
2020/12/14 01:56:23;;;;;;;5.25;3.75;;;;;;;;;;2064579;28;20062;-79
2020/12/14 01:57:41;;;;;;;4.45;3.83;;;;;;;;;;2061511;28;20390;-78
2020/12/14 01:59:01;;;;;;;4.40;4.00;;;;;;;;;;2060348;28;20061;-80
2020/12/14 02:00:20;;;;;;;5.35;4.78;;;;;;;;;;2065059;28;20030;-79
2020/12/14 02:01:38;;;;;;;6.40;4.35;;;;;;;;;;2064933;28;20026;-78
2020/12/14 02:02:57;;;;;;;5.20;4.57;;;;;;;;;;2065655;28;20034;-74
2020/12/14 02:04:17;;;;;;;4.13;3.72;;;;;;;;;;2065645;28;20034;-80
2020/12/14 02:05:36;;;;;;;6.13;4.18;;;;;;;;;;2065068;28;20114;-79
2020/12/14 02:06:54;;;;;;;4.80;4.15;;;;;;;;;;2065914;28;20094;-79
2020/12/14 02:08:13;;;;;;;4.13;3.72;;;;;;;;;;2065547;28;20094;-79
2020/12/14 02:09:32;;;;;;;4.15;3.75;;;;;;;;;;2061971;28;20422;-78
2020/12/14 02:10:51;;;;;;;10.00;5.18;;;;;;;;;;2064563;28;20034;-78
2020/12/14 02:12:10;;;;;;;6.07;4.32;;;;;;;;;;2064153;28;20030;-79
2020/12/14 02:13:30;;;;;;;4.80;4.22;;;;;;;;;;2064872;28;20472;-78
2020/12/14 02:14:55;;;;;;;5.30;4.45;;;;;;;;;;2064883;28;20441;-74
2020/12/14 02:16:14;;;;;;;4.60;4.18;;;;;;;;;;2065980;28;20026;-79
2020/12/14 02:17:33;;;;;;;6.35;4.57;;;;;;;;;;2059753;28;20026;-79
2020/12/14 02:18:51;;;;;;;5.97;4.65;;;;;;;;;;2060860;28;20035;-79
2020/12/14 02:20:11;;;;;;;4.78;4.30;;;;;;;;;;2060093;28;20031;-79
2020/12/14 02:21:29;;;;;;;4.75;4.25;;;;;;;;;;2065732;28;20023;-79
2020/12/14 02:22:48;;;;;;;4.68;4.05;;;;;;;;;;2059476;28;20034;-78
2020/12/14 02:24:11;;;;;;;5.88;3.75;;;;;;;;;;2060116;28;20038;-79
2020/12/14 02:25:31;;;;;;;4.70;4.30;;;;;;;;;;2060223;28;20065;-79
2020/12/14 02:26:49;;;;;;;5.13;4.63;;;;;;;;;;2063687;28;20035;-79
2020/12/14 02:28:08;;;;;;;5.78;4.15;;;;;;;;;;2064715;28;20023;-79
2020/12/14 02:29:27;;;;;;;5.22;4.63;;;;;;;;;;2062685;28;20019;-79
2020/12/14 02:30:46;;;;;;;5.30;4.07;;;;;;;;;;2065834;28;20030;-79
2020/12/14 02:32:05;;;;;;;5.05;4.40;;;;;;;;;;2063902;28;20026;-79
2020/12/14 02:33:23;;;;;;;5.05;4.18;;;;;;;;;;2064699;28;20034;-79
2020/12/14 02:34:43;;;;;;;5.55;4.75;;;;;;;;;;2066438;28;20042;-79
2020/12/14 02:36:02;;;;;;;7.03;4.25;;;;;;;;;;2058227;28;20023;-78
2020/12/14 02:37:23;;;;;;;6.57;4.55;;;;;;;;;;2061972;28;20483;-77
2020/12/14 02:38:41;;;;;;;5.97;4.38;;;;;;;;;;2065581;28;20117;-78
2020/12/14 02:40:00;;;;;;;6.97;4.13;;;;;;;;;;2066271;28;20495;-79
2020/12/14 02:41:19;;;;;;;5.22;4.70;;;;;;;;;;2064238;28;20030;-79
2020/12/14 02:42:38;;;;;;;6.95;4.65;;;;;;;;;;2066308;28;20030;-79
2020/12/14 02:43:57;;;;;;;4.97;4.47;;;;;;;;;;2063782;28;20398;-78
2020/12/14 02:45:16;;;;;;;5.78;4.00;;;;;;;;;;2065936;28;20026;-78
2020/12/14 02:46:35;;;;;;;4.72;4.22;;;;;;;;;;2066198;28;20054;-78
2020/12/14 02:47:54;;;;;;;4.97;4.47;;;;;;;;;;2058202;28;20027;-78
2020/12/14 02:49:13;;;;;;;4.03;3.63;;;;;;;;;;2063679;28;20027;-80
2020/12/14 02:50:35;;;;;;;6.72;4.05;;;;;;;;;;2065960;28;20031;-78
2020/12/14 02:51:54;;;;;;;4.72;4.30;;;;;;;;;;2065214;28;20027;-79
2020/12/14 02:53:12;;;;;;;4.03;3.63;;;;;;;;;;2055820;28;20133;-74
2020/12/14 02:54:32;;;;;;;7.57;4.43;;;;;;;;;;2061907;28;20039;-78
2020/12/14 02:55:52;;;;;;;7.85;3.90;;;;;;;;;;2059063;28;20039;-78
2020/12/14 02:57:11;;;;;;;7.60;4.03;;;;;;;;;;2065514;28;20027;-76
2020/12/14 02:58:30;;;;;;;4.70;4.05;;;;;;;;;;2063685;28;20038;-78
2020/12/14 02:59:50;;;;;;;4.00;3.60;;;;;;;;;;2064993;28;20030;-78
2020/12/14 03:01:09;;;;;;;4.72;4.15;;;;;;;;;;2063721;28;20019;-78
2020/12/14 03:02:28;;;;;;;5.10;4.15;;;;;;;;;;2058677;28;20501;-78
2020/12/14 03:03:47;;;;;;;4.43;4.03;;;;;;;;;;2066253;28;20034;-78
2020/12/14 03:05:06;;;;;;;4.82;3.88;;;;;;;;;;2057383;28;20105;-78
2020/12/14 03:06:24;;;;;;;4.22;3.83;;;;;;;;;;2060319;28;20018;-78
2020/12/14 03:07:43;;;;;;;3.90;3.50;;;;;;;;;;2059225;28;20027;-73
2020/12/14 03:09:03;;;;;;;3.60;3.30;;;;;;;;;;2061504;28;20434;-78
2020/12/14 03:10:21;;;;;;;3.88;3.38;;;;;;;;;;2060710;28;20027;-78
2020/12/14 03:11:40;;;;;;;4.30;3.53;;;;;;;;;;2062471;28;20061;-77
2020/12/14 03:12:59;;;;;;;3.55;3.22;;;;;;;;;;2069424;28;20463;-79
2020/12/14 03:14:18;;;;;;;4.32;3.83;;;;;;;;;;2066945;28;20031;-78
2020/12/14 03:15:40;;;;;;;5.85;3.83;;;;;;;;;;2064181;28;20030;-73
2020/12/14 03:17:00;;;;;;;3.75;3.45;;;;;;;;;;2062869;28;20022;-78
2020/12/14 03:18:19;;;;;;;4.47;3.58;;;;;;;;;;2059429;28;20470;-78
2020/12/14 03:19:38;;;;;;;4.20;3.78;;;;;;;;;;2058280;28;20038;-77
2020/12/14 03:20:57;;;;;;;4.05;3.40;;;;;;;;;;2064719;28;20030;-79
2020/12/14 03:22:16;;;;;;;3.92;3.63;;;;;;;;;;2061476;28;20034;-78
2020/12/14 03:23:35;;;;;;;4.03;3.72;;;;;;;;;;2058924;28;20035;-78
2020/12/14 03:24:54;;;;;;;3.85;3.38;;;;;;;;;;2061924;28;20486;-79
2020/12/14 03:26:14;;;;;;;4.47;3.60;;;;;;;;;;2065822;28;20038;-77
2020/12/14 03:27:33;;;;;;;4.35;3.65;;;;;;;;;;2059583;28;20034;-79
2020/12/14 03:28:52;;;;;;;4.13;3.70;;;;;;;;;;2065008;28;20038;-77
2020/12/14 03:30:11;;;;;;;4.32;3.42;;;;;;;;;;2061983;28;20019;-77
2020/12/14 03:31:30;;;;;;;4.88;3.47;;;;;;;;;;2064080;28;20387;-77
2020/12/14 03:32:49;;;;;;;4.63;3.58;;;;;;;;;;2062051;28;20030;-78
2020/12/14 03:34:08;;;;;;;3.78;3.45;;;;;;;;;;2060957;28;20030;-77
2020/12/14 03:35:27;;;;;;;3.95;3.65;;;;;;;;;;2062528;28;20375;-77
2020/12/14 03:36:46;;;;;;;5.10;4.60;;;;;;;;;;2064100;28;20116;-75
2020/12/14 03:38:05;;;;;;;4.25;3.85;;;;;;;;;;2060763;28;20050;-76
2020/12/14 03:39:24;;;;;;;3.65;3.15;;;;;;;;;;2063963;28;20030;-76
2020/12/14 03:40:43;;;;;;;4.38;3.97;;;;;;;;;;2065316;28;20101;-76
2020/12/14 03:42:02;;;;;;;4.30;3.90;;;;;;;;;;2060474;28;20415;-76
2020/12/14 03:43:21;;;;;;;3.85;3.55;;;;;;;;;;2062682;28;20030;-76
2020/12/14 03:44:40;;;;;;;3.70;3.40;;;;;;;;;;2063657;28;20030;-78
2020/12/14 03:45:59;;;;;;;3.92;3.53;;;;;;;;;;2067364;28;20026;-77
2020/12/14 03:47:18;;;;;;;5.75;3.85;;;;;;;;;;2064518;28;20422;-77
2020/12/14 03:48:36;;;;;;;4.07;3.67;;;;;;;;;;2058260;28;20030;-76
2020/12/14 03:49:56;;;;;;;5.32;3.85;;;;;;;;;;2065648;28;20461;-76
2020/12/14 03:51:14;;;;;;;5.10;3.75;;;;;;;;;;2062445;28;20026;-75
2020/12/14 03:52:33;;;;;;;4.35;3.88;;;;;;;;;;2057885;28;20984;-75
2020/12/14 03:53:53;;;;;;;4.32;3.92;;;;;;;;;;2062901;28;20030;-76
2020/12/14 03:55:13;;;;;;;4.20;3.80;;;;;;;;;;2061788;28;20034;-75
2020/12/14 03:56:32;;;;;;;4.50;3.72;;;;;;;;;;2063808;28;20050;-74
2020/12/14 03:57:51;;;;;;;5.03;4.18;;;;;;;;;;2063132;28;20058;-76
2020/12/14 03:59:09;;;;;;;3.83;3.42;;;;;;;;;;2059740;28;20027;-78
2020/12/14 04:00:28;;;;;;;4.03;3.63;;;;;;;;;;2057514;28;20105;-78
2020/12/14 04:01:47;;;;;;;4.07;3.65;;;;;;;;;;2059196;28;20030;-78
2020/12/14 04:03:08;;;;;;;4.20;3.85;;;;;;;;;;2058921;28;20407;-78
2020/12/14 04:04:27;;;;;;;5.28;3.72;;;;;;;;;;2060430;28;20475;-78
2020/12/14 04:05:46;;;;;;;6.18;4.25;;;;;;;;;;2061675;28;20035;-79
2020/12/14 04:07:05;;;;;;;4.45;4.05;;;;;;;;;;2064414;28;20046;-78
2020/12/14 04:08:23;;;;;;;4.78;3.72;;;;;;;;;;2063657;28;20026;-78
2020/12/14 04:09:42;;;;;;;7.63;4.10;;;;;;;;;;2063133;28;20431;-76
2020/12/14 04:11:03;;;;;;;4.60;3.90;;;;;;;;;;2062827;28;20467;-78
2020/12/14 04:12:22;;;;;;;6.03;4.18;;;;;;;;;;2063227;28;20018;-79
2020/12/14 04:13:41;;;;;;;4.60;4.07;;;;;;;;;;2065231;28;20034;-78
2020/12/14 04:15:00;;;;;;;4.05;3.65;;;;;;;;;;2063709;28;20038;-72
2020/12/14 04:16:19;;;;;;;4.57;3.97;;;;;;;;;;2067637;28;20395;-75
2020/12/14 04:17:38;;;;;;;4.70;4.15;;;;;;;;;;2065719;28;20031;-75
2020/12/14 04:18:57;;;;;;;4.10;3.70;;;;;;;;;;2064711;28;20026;-76
2020/12/14 04:20:16;;;;;;;4.20;3.80;;;;;;;;;;2059496;28;20027;-78
2020/12/14 04:21:35;;;;;;;5.15;3.80;;;;;;;;;;2065150;28;20455;-79
2020/12/14 04:22:54;;;;;;;4.72;4.32;;;;;;;;;;2064486;28;20034;-79
2020/12/14 04:24:13;;;;;;;5.05;4.15;;;;;;;;;;2063024;28;20034;-79
2020/12/14 04:25:32;;;;;;;6.28;4.15;;;;;;;;;;2063527;28;20042;-79
2020/12/14 04:26:52;;;;;;;4.80;4.00;;;;;;;;;;2063398;28;20058;-79
2020/12/14 04:28:11;;;;;;;5.03;4.00;;;;;;;;;;2063143;28;20053;-79
2020/12/14 04:29:30;;;;;;;4.38;3.97;;;;;;;;;;2063157;28;20058;-79
2020/12/14 04:30:48;;;;;;;5.50;4.50;;;;;;;;;;2064137;28;20030;-79
2020/12/14 04:32:07;;;;;;;4.47;4.07;;;;;;;;;;2063467;28;20041;-75
2020/12/14 04:33:26;;;;;;;5.10;4.32;;;;;;;;;;2070922;28;20406;-80
2020/12/14 04:34:45;;;;;;;4.70;4.30;;;;;;;;;;2067343;28;20054;-79
2020/12/14 04:36:05;;;;;;;5.03;3.97;;;;;;;;;;2062983;28;20590;-79
2020/12/14 04:37:23;;;;;;;5.18;4.25;;;;;;;;;;2064079;28;20391;-78
2020/12/14 04:38:42;;;;;;;4.93;4.43;;;;;;;;;;2063625;28;20421;-79
2020/12/14 04:40:02;;;;;;;4.85;4.43;;;;;;;;;;2064270;28;20046;-79
2020/12/14 04:41:21;;;;;;;4.95;4.43;;;;;;;;;;2063380;28;20386;-78
2020/12/14 04:42:41;;;;;;;4.70;4.30;;;;;;;;;;2064135;28;20030;-79
2020/12/14 04:44:00;;;;;;;4.60;4.13;;;;;;;;;;2062520;28;20486;-79
2020/12/14 04:45:20;;;;;;;4.75;4.35;;;;;;;;;;2064342;28;20031;-78
2020/12/14 04:46:39;;;;;;;5.10;4.60;;;;;;;;;;2064795;28;20026;-79
2020/12/14 04:47:58;;;;;;;7.05;4.57;;;;;;;;;;2062189;28;20034;-76
2020/12/14 04:49:17;;;;;;;10.75;4.50;;;;;;;;;;2059787;28;20675;-80
2020/12/14 04:50:39;;;;;;;7.50;4.50;;;;;;;;;;2063305;28;20034;-80
2020/12/14 04:51:58;;;;;;;5.90;5.00;;;;;;;;;;2057243;28;20031;-79
2020/12/14 04:53:17;;;;;;;7.88;4.82;;;;;;;;;;2057908;28;20015;-79
2020/12/14 04:54:37;;;;;;;8.20;4.93;;;;;;;;;;2061213;28;20034;-79
2020/12/14 04:55:56;;;;;;;5.90;4.65;;;;;;;;;;2061185;28;20031;-80
2020/12/14 04:57:15;;;;;;;7.82;4.63;;;;;;;;;;2064755;28;20110;-79
2020/12/14 04:58:35;;;;;;;4.97;4.22;;;;;;;;;;2065147;28;20379;-80
2020/12/14 04:59:54;;;;;;;8.63;5.18;;;;;;;;;;2062581;28;20078;-79
2020/12/14 05:01:13;;;;;;;6.32;4.82;;;;;;;;;;2054473;28;20019;-78
2020/12/14 05:02:32;;;;;;;5.15;4.65;;;;;;;;;;2054722;28;20054;-79
2020/12/14 05:03:51;;;;;;;7.97;4.63;;;;;;;;;;2059836;28;20110;-79
2020/12/14 05:05:11;;;;;;;7.10;4.60;;;;;;;;;;2063732;28;20035;-80
2020/12/14 05:06:49;;;;;;;5.15;4.55;;;;;;;;;;2056952;28;20109;-79
2020/12/14 05:08:08;;;;;;;10.77;5.05;;;;;;;;;;2061021;28;20471;-79
2020/12/14 05:09:27;;;;;;;5.10;4.60;;;;;;;;;;2062616;28;20053;-79
2020/12/14 05:10:46;;;;;;;5.78;4.90;;;;;;;;;;2059871;28;20019;-79
2020/12/14 05:12:15;;;;;;;6.32;4.65;;;;;;;;;;2056130;28;20023;-79
2020/12/14 05:13:34;;;;;;;7.07;5.03;;;;;;;;;;2057542;28;20511;-76
2020/12/14 05:14:53;;;;;;;9.23;5.03;;;;;;;;;;2059285;28;20034;-80
2020/12/14 05:16:12;;;;;;;5.65;4.70;;;;;;;;;;2064722;28;20035;-79
2020/12/14 05:17:31;;;;;;;6.70;5.20;;;;;;;;;;2063978;28;20030;-80
2020/12/14 05:18:49;;;;;;;6.80;5.10;;;;;;;;;;2065678;28;20034;-78
2020/12/14 05:20:12;;;;;;;7.05;4.72;;;;;;;;;;2061962;28;20390;-79
2020/12/14 05:21:44;;;;;;;6.00;4.90;;;;;;;;;;2060943;28;20030;-79
2020/12/14 05:23:04;;;;;;;7.30;4.07;;;;;;;;;;2064435;28;20022;-77
2020/12/14 05:24:27;;;;;;;5.97;4.97;;;;;;;;;;2064274;28;20120;-79
2020/12/14 05:25:46;;;;;;;;;;;;;;;;;;2065683;28;20546;-79
2020/12/14 05:27:05;;;;;;;8.13;5.30;;;;;;;;;;2065785;28;19996;-76
2020/12/14 05:28:24;;;;;;;7.95;5.30;;;;;;;;;;2062216;28;20026;-75
2020/12/14 05:29:42;;;;;;;12.52;5.22;;;;;;;;;;2060743;28;20035;-76
2020/12/14 05:31:02;;;;;;;9.55;5.30;;;;;;;;;;2066424;28;20030;-75
2020/12/14 05:32:21;;;;;;;12.63;5.43;;;;;;;;;;2061411;28;20023;-76
2020/12/14 05:33:40;;;;;;;6.03;4.93;;;;;;;;;;2065101;28;20034;-75
2020/12/14 05:34:58;;;;;;;10.98;5.28;;;;;;;;;;2063969;28;20022;-75
2020/12/14 05:36:17;;;;;;;10.43;5.03;;;;;;;;;;2061186;28;20038;-75
2020/12/14 05:37:37;;;;;;;7.18;4.72;;;;;;;;;;2065701;28;20034;-76
2020/12/14 05:38:56;;;;;;;7.95;5.60;;;;;;;;;;2063771;28;20453;-74
2020/12/14 05:40:15;;;;;;;13.63;6.18;;;;;;;;;;2064298;28;20117;-77
2020/12/14 05:41:34;;;;;;;8.18;4.80;;;;;;;;;;2066385;28;20042;-77
2020/12/14 05:42:54;;;;;;;10.50;4.82;;;;;;;;;;2061200;28;20039;-75
2020/12/14 05:44:12;;;;;;;9.13;5.20;;;;;;;;;;2063149;28;20038;-72
2020/12/14 05:45:31;;;;;;;10.02;5.43;;;;;;;;;;2059552;28;20499;-74
2020/12/14 05:46:50;;;;;;;7.88;5.05;;;;;;;;;;2058078;28;20034;-77
2020/12/14 05:48:21;;;;;;;15.35;5.55;;;;;;;;;;2063649;28;20517;-76
2020/12/14 05:49:40;;;;;;;8.80;5.50;;;;;;;;;;2063135;28;20065;-79
2020/12/14 05:51:00;;;;;;;11.85;4.97;;;;;;;;;;2059406;28;20546;-77
2020/12/14 05:52:20;;;;;;;8.68;5.07;;;;;;;;;;2064759;28;20027;-76
2020/12/14 05:53:49;;;;;;;15.63;5.28;;;;;;;;;;2064200;28;20026;-78
2020/12/14 05:55:09;;;;;;;11.13;4.88;;;;;;;;;;2061439;28;20030;-80
2020/12/14 05:56:31;;;;;;;8.48;5.00;;;;;;;;;;2059627;28;20062;-76
2020/12/14 05:57:51;;;;;;;10.63;5.05;;;;;;;;;;2063459;28;20042;-75
2020/12/14 05:59:10;;;;;;;13.00;4.80;;;;;;;;;;2063949;28;20129;-74
2020/12/14 06:00:29;;;;;;;11.93;5.50;;;;;;;;;;2060791;28;20627;-75
2020/12/14 06:01:48;;;;;;;14.65;5.30;;;;;;;;;;2062286;28;20038;-74
2020/12/14 06:03:08;;;;;;;6.35;4.80;;;;;;;;;;2062925;28;20498;-76
2020/12/14 06:04:28;;;;;;;7.93;5.28;;;;;;;;;;2062330;28;20042;-75
2020/12/14 06:05:50;;;;;;;8.60;5.25;;;;;;;;;;2061957;28;20038;-74
2020/12/14 06:07:11;;;;;;;9.45;5.50;;;;;;;;;;2064316;28;20216;-76
2020/12/14 06:08:36;;;;;;;9.45;5.15;;;;;;;;;;2063779;28;20030;-76
2020/12/14 06:10:08;;;;;;;8.68;5.22;;;;;;;;;;2059369;28;20459;-76
2020/12/14 06:11:27;;;;;;;10.98;5.53;;;;;;;;;;2063707;28;20030;-76
2020/12/14 06:12:48;;;;;;;7.47;5.28;;;;;;;;;;2065169;28;20019;-76
2020/12/14 06:14:07;;;;;;;13.55;5.40;;;;;;;;;;2062668;28;20125;-75
2020/12/14 06:15:29;;;;;;;10.27;5.97;;;;;;;;;;2060791;28;20031;-73
2020/12/14 06:16:47;;;;;;;12.55;5.95;;;;;;;;;;2063261;28;20034;-74
2020/12/14 06:18:08;;;;;;;16.10;5.43;;;;;;;;;;2062598;28;20093;-74
2020/12/14 06:19:27;;;;;;;12.32;5.43;;;;;;;;;;2064159;28;20034;-74
2020/12/14 06:20:46;;;;;;;11.60;6.45;;;;;;;;;;2062968;28;20038;-74
2020/12/14 06:22:07;;;;;;;13.25;5.63;;;;;;;;;;2064570;28;20050;-74
2020/12/14 06:23:28;;;;;;;11.95;5.90;;;;;;;;;;2061431;28;20027;-73
2020/12/14 06:24:47;;;;;;;10.80;6.18;;;;;;;;;;2063421;28;20406;-73
2020/12/14 06:26:06;;;;;;;9.88;5.93;;;;;;;;;;2065166;28;20118;-72
2020/12/14 06:27:26;;;;;;;12.07;5.78;;;;;;;;;;2063336;28;20022;-73
2020/12/14 06:28:49;;;;;;;11.32;5.95;;;;;;;;;;2059473;28;20102;-70
2020/12/14 06:30:26;;;;;;;12.52;6.30;;;;;;;;;;2062192;28;20126;-73
2020/12/14 06:31:45;;;;;;;19.10;6.32;;;;;;;;;;2061525;28;20023;-74
2020/12/14 06:33:08;;;;;;;14.40;6.10;;;;;;;;;;2062801;28;20382;-74
2020/12/14 06:34:33;;;;;;;9.38;5.63;;;;;;;;;;2061705;28;20038;-74
2020/12/14 06:35:53;;;;;;;12.80;5.53;;;;;;;;;;2064158;28;20116;-75
2020/12/14 06:37:18;;;;;;;13.77;6.13;;;;;;;;;;2064695;28;20494;-75
2020/12/14 06:38:38;;;;;;;9.40;5.63;;;;;;;;;;2060913;28;20390;-75
2020/12/14 06:39:57;;;;;;;10.32;5.55;;;;;;;;;;2060416;28;20031;-73
2020/12/14 06:41:17;;;;;;;10.18;5.88;;;;;;;;;;2062457;28;20486;-75
2020/12/14 06:42:36;;;;;;;17.02;5.82;;;;;;;;;;2063262;28;20541;-75
2020/12/14 06:44:23;;;;;;;13.48;6.53;;;;;;;;;;2064913;28;20441;-74
2020/12/14 06:45:41;;;;;;;25.42;6.57;;;;;;;;;;2064234;28;20038;-75
2020/12/14 06:47:13;;;;;;;10.80;5.95;;;;;;;;;;2065467;28;20117;-75
2020/12/14 06:48:36;;;;;;;14.95;6.68;;;;;;;;;;2063448;28;20494;-74
2020/12/14 06:49:55;;;;;;;18.40;6.30;;;;;;;;;;2060108;28;20070;-74
2020/12/14 06:51:16;;;;;;;7.97;6.30;;;;;;;;;;2062101;28;20030;-75
2020/12/14 06:52:35;;;;;;;17.27;6.28;;;;;;;;;;2064664;28;20050;-74
2020/12/14 06:53:54;;;;;;;9.30;5.28;;;;;;;;;;2063971;28;20398;-74
2020/12/14 06:55:13;;;;;;;10.65;6.00;;;;;;;;;;2065844;28;20030;-76
2020/12/14 06:56:32;;;;;;;10.40;5.68;;;;;;;;;;2064206;28;20378;-75
2020/12/14 06:57:51;;;;;;;9.25;5.80;;;;;;;;;;2063622;28;20444;-73
2020/12/14 06:59:26;;;;;;;11.65;6.00;;;;;;;;;;2064704;28;20022;-74
2020/12/14 07:00:44;;;;;;;10.23;6.13;;;;;;;;;;2063645;28;20038;-74
2020/12/14 07:02:05;;;;;;;10.80;6.10;;;;;;;;;;2064346;28;20030;-75
2020/12/14 07:03:30;;;;;;;14.48;5.85;;;;;;;;;;2060579;28;20487;-74
2020/12/14 07:04:49;;;;;;;12.35;5.90;;;;;;;;;;2059669;28;20031;-76
2020/12/14 07:06:08;;;;;;;12.02;6.07;;;;;;;;;;2062062;28;20022;-76
2020/12/14 07:07:31;;;;;;;10.85;6.18;;;;;;;;;;2061938;28;20058;-76
2020/12/14 07:08:50;;;;;;;13.63;6.78;;;;;;;;;;2064031;28;20026;-76
2020/12/14 07:10:10;;;;;;;19.45;6.28;;;;;;;;;;2061735;28;20464;-76
2020/12/14 07:11:29;;;;;;;12.88;6.20;;;;;;;;;;2061411;28;20121;-74
2020/12/14 07:12:48;;;;;;;20.77;6.45;;;;;;;;;;2063896;28;20026;-74
2020/12/14 07:14:25;;;;;;;18.67;6.82;;;;;;;;;;2057976;28;20442;-75
2020/12/14 07:15:44;;;;;;;11.32;6.03;;;;;;;;;;2066138;28;20113;-76
2020/12/14 07:17:08;;;;;;;20.50;7.00;;;;;;;;;;2062020;28;20030;-76
2020/12/14 07:18:29;;;;;;;12.10;5.45;;;;;;;;;;2062736;28;20424;-76
2020/12/14 07:19:49;;;;;;;14.55;5.90;;;;;;;;;;2059511;28;20090;-74
2020/12/14 07:21:09;;;;;;;16.90;6.72;;;;;;;;;;2063967;28;20026;-76
2020/12/14 07:22:31;;;;;;;20.52;7.80;;;;;;;;;;2061835;28;20031;-75
2020/12/14 07:23:51;;;;;;;15.30;6.75;;;;;;;;;;2065147;28;20105;-76
2020/12/14 07:25:19;;;;;;;18.13;6.40;;;;;;;;;;2062611;28;20050;-74
2020/12/14 07:26:38;;;;;;;22.38;7.00;;;;;;;;;;2059678;28;20035;-76
2020/12/14 07:27:56;;;;;;;18.20;6.75;;;;;;;;;;2063093;28;20047;-76
2020/12/14 07:29:20;;;;;;;12.95;5.80;;;;;;;;;;2064494;28;20107;-75
2020/12/14 07:30:39;;;;;;;17.80;6.82;;;;;;;;;;2061448;28;20027;-75
2020/12/14 07:32:02;;;;;;;9.40;6.25;;;;;;;;;;2064356;28;20391;-75
2020/12/14 07:33:21;;;;;;;12.63;6.75;;;;;;;;;;2065839;28;20030;-76
2020/12/14 07:34:50;;;;;;;15.55;6.28;;;;;;;;;;2061713;28;20101;-75
2020/12/14 07:36:10;;;;;;;12.45;6.30;;;;;;;;;;2060514;28;20030;-75
2020/12/14 07:37:28;;;;;;;9.23;6.22;;;;;;;;;;2055396;28;20366;-76
2020/12/14 07:38:49;;;;;;;14.93;6.40;;;;;;;;;;2054162;28;20066;-74
2020/12/14 07:40:11;;;;;;;15.40;6.38;;;;;;;;;;2053026;28;20490;-74
2020/12/14 07:41:30;;;;;;;15.20;6.38;;;;;;;;;;2054144;28;20030;-77
2020/12/14 07:42:48;;;;;;;16.30;6.30;;;;;;;;;;2056848;28;20101;-75
2020/12/14 07:44:07;;;;;;;15.23;6.15;;;;;;;;;;2056226;28;20026;-78
2020/12/14 07:45:26;;;;;;;13.77;6.18;;;;;;;;;;2056152;28;20035;-79
2020/12/14 07:46:45;;;;;;;9.70;6.20;;;;;;;;;;2055783;28;20034;-75
2020/12/14 07:48:04;;;;;;;12.13;6.50;;;;;;;;;;2053697;28;20018;-79
2020/12/14 07:49:24;;;;;;;9.73;5.93;;;;;;;;;;2057676;28;20600;-79
2020/12/14 07:50:42;;;;;;;10.75;6.07;;;;;;;;;;2057434;28;20034;-75
2020/12/14 07:52:02;;;;;;;12.13;5.82;;;;;;;;;;2056102;28;20058;-77
2020/12/14 07:53:21;;;;;;;10.43;6.03;;;;;;;;;;2054471;28;20023;-73
2020/12/14 07:54:40;;;;;;;10.60;6.53;;;;;;;;;;2056503;28;20101;-79
2020/12/14 07:56:02;;;;;;;15.02;5.57;;;;;;;;;;2057270;28;20042;-79
2020/12/14 07:57:29;;;;;;;12.13;7.40;;;;;;;;;;2057554;28;20565;-78